sensor_id;sensor_type;location;lat;lon;timestamp;pressure;altitude;pressure_sealevel;temperature;humidity
74466;BME280;62916;50.044;15.938;2023-08-12T00:00:56;99689.77;;;23.86;47.94
74466;BME280;62916;50.044;15.938;2023-08-12T00:03:27;99687.43;;;23.86;47.99
74466;BME280;62916;50.044;15.938;2023-08-12T00:05:59;99681.53;;;23.86;47.96
74466;BME280;62916;50.044;15.938;2023-08-12T00:08:31;99672.14;;;23.86;47.99
74466;BME280;62916;50.044;15.938;2023-08-12T00:11:02;99665.86;;;23.85;47.95
74466;BME280;62916;50.044;15.938;2023-08-12T00:13:33;99665.83;;;23.85;47.98
74466;BME280;62916;50.044;15.938;2023-08-12T00:16:04;99666.19;;;23.84;47.89
74466;BME280;62916;50.044;15.938;2023-08-12T00:18:35;99670.33;;;23.84;47.98
74466;BME280;62916;50.044;15.938;2023-08-12T00:21:09;99665.52;;;23.83;47.91
74466;BME280;62916;50.044;15.938;2023-08-12T00:23:41;99670.05;;;23.83;47.93
74466;BME280;62916;50.044;15.938;2023-08-12T00:26:13;99672.27;;;23.84;47.92
74466;BME280;62916;50.044;15.938;2023-08-12T00:28:44;99672.59;;;23.84;47.93
74466;BME280;62916;50.044;15.938;2023-08-12T00:31:15;99671.30;;;23.84;47.93
74466;BME280;62916;50.044;15.938;2023-08-12T00:33:45;99670.65;;;23.84;47.89
74466;BME280;62916;50.044;15.938;2023-08-12T00:36:16;99667.15;;;23.84;47.88
74466;BME280;62916;50.044;15.938;2023-08-12T00:38:47;99668.23;;;23.84;47.82
74466;BME280;62916;50.044;15.938;2023-08-12T00:41:19;99664.95;;;23.83;47.84
74466;BME280;62916;50.044;15.938;2023-08-12T00:43:50;99663.86;;;23.84;47.98
74466;BME280;62916;50.044;15.938;2023-08-12T00:46:20;99660.39;;;23.84;47.93
74466;BME280;62916;50.044;15.938;2023-08-12T00:48:52;99658.97;;;23.85;47.87
74466;BME280;62916;50.044;15.938;2023-08-12T00:51:23;99655.54;;;23.86;47.81
74466;BME280;62916;50.044;15.938;2023-08-12T00:53:55;99653.17;;;23.86;47.81
74466;BME280;62916;50.044;15.938;2023-08-12T00:56:28;99650.38;;;23.87;47.89
74466;BME280;62916;50.044;15.938;2023-08-12T00:59:00;99649.05;;;23.87;47.85
74466;BME280;62916;50.044;15.938;2023-08-12T01:01:33;99651.22;;;23.89;47.80
74466;BME280;62916;50.044;15.938;2023-08-12T01:04:04;99654.32;;;23.89;47.80
74466;BME280;62916;50.044;15.938;2023-08-12T01:06:36;99655.98;;;23.89;47.74
74466;BME280;62916;50.044;15.938;2023-08-12T01:09:08;99648.81;;;23.88;47.88
74466;BME280;62916;50.044;15.938;2023-08-12T01:11:45;99646.15;;;23.88;47.75
74466;BME280;62916;50.044;15.938;2023-08-12T01:14:25;99644.91;;;23.87;47.76
74466;BME280;62916;50.044;15.938;2023-08-12T01:17:02;99642.20;;;23.87;47.76
74466;BME280;62916;50.044;15.938;2023-08-12T01:19:36;99647.08;;;23.87;47.77
74466;BME280;62916;50.044;15.938;2023-08-12T01:22:09;99642.81;;;23.87;47.82
74466;BME280;62916;50.044;15.938;2023-08-12T01:24:39;99641.55;;;23.88;47.77
74466;BME280;62916;50.044;15.938;2023-08-12T01:27:12;99643.73;;;23.85;47.74
74466;BME280;62916;50.044;15.938;2023-08-12T01:29:45;99640.42;;;23.85;47.68
74466;BME280;62916;50.044;15.938;2023-08-12T01:32:23;99640.20;;;23.85;47.64
74466;BME280;62916;50.044;15.938;2023-08-12T01:35:00;99639.07;;;23.85;47.68
74466;BME280;62916;50.044;15.938;2023-08-12T01:37:32;99638.77;;;23.86;47.63
74466;BME280;62916;50.044;15.938;2023-08-12T01:40:07;99638.90;;;23.85;47.64
74466;BME280;62916;50.044;15.938;2023-08-12T01:42:40;99640.20;;;23.85;47.59
74466;BME280;62916;50.044;15.938;2023-08-12T01:45:12;99634.27;;;23.85;47.58
74466;BME280;62916;50.044;15.938;2023-08-12T01:47:45;99622.54;;;23.81;47.48
74466;BME280;62916;50.044;15.938;2023-08-12T01:50:17;99629.64;;;23.84;47.58
74466;BME280;62916;50.044;15.938;2023-08-12T01:52:49;99634.66;;;23.85;47.51
74466;BME280;62916;50.044;15.938;2023-08-12T01:55:20;99635.16;;;23.85;47.48
74466;BME280;62916;50.044;15.938;2023-08-12T01:57:50;99636.30;;;23.85;47.53
74466;BME280;62916;50.044;15.938;2023-08-12T02:00:21;99637.45;;;23.85;47.21
74466;BME280;62916;50.044;15.938;2023-08-12T02:02:52;99632.50;;;23.81;47.28
74466;BME280;62916;50.044;15.938;2023-08-12T02:05:23;99630.20;;;23.81;47.27
74466;BME280;62916;50.044;15.938;2023-08-12T02:07:54;99630.54;;;23.81;47.24
74466;BME280;62916;50.044;15.938;2023-08-12T02:10:25;99631.84;;;23.81;47.26
74466;BME280;62916;50.044;15.938;2023-08-12T02:12:57;99627.10;;;23.79;47.26
74466;BME280;62916;50.044;15.938;2023-08-12T02:15:27;99624.64;;;23.79;47.22
74466;BME280;62916;50.044;15.938;2023-08-12T02:17:58;99623.61;;;23.80;47.19
74466;BME280;62916;50.044;15.938;2023-08-12T02:20:29;99618.64;;;23.79;47.23
74466;BME280;62916;50.044;15.938;2023-08-12T02:23:00;99612.62;;;23.74;47.30
74466;BME280;62916;50.044;15.938;2023-08-12T02:25:32;99622.37;;;23.78;47.08
74466;BME280;62916;50.044;15.938;2023-08-12T02:28:04;99625.96;;;23.77;47.17
74466;BME280;62916;50.044;15.938;2023-08-12T02:30:34;99624.27;;;23.77;47.25
74466;BME280;62916;50.044;15.938;2023-08-12T02:33:05;99618.39;;;23.76;47.30
74466;BME280;62916;50.044;15.938;2023-08-12T02:35:37;99618.75;;;23.75;47.26
74466;BME280;62916;50.044;15.938;2023-08-12T02:38:08;99617.18;;;23.75;47.33
74466;BME280;62916;50.044;15.938;2023-08-12T02:40:39;99617.34;;;23.75;47.40
74466;BME280;62916;50.044;15.938;2023-08-12T02:43:09;99615.79;;;23.74;47.34
74466;BME280;62916;50.044;15.938;2023-08-12T02:45:42;99616.29;;;23.70;47.42
74466;BME280;62916;50.044;15.938;2023-08-12T02:48:12;99618.98;;;23.74;47.32
74466;BME280;62916;50.044;15.938;2023-08-12T02:50:43;99621.94;;;23.73;47.35
74466;BME280;62916;50.044;15.938;2023-08-12T02:53:14;99615.74;;;23.72;47.28
74466;BME280;62916;50.044;15.938;2023-08-12T02:55:46;99616.08;;;23.72;47.30
74466;BME280;62916;50.044;15.938;2023-08-12T02:58:16;99614.69;;;23.71;47.28
74466;BME280;62916;50.044;15.938;2023-08-12T03:00:47;99614.91;;;23.71;47.39
74466;BME280;62916;50.044;15.938;2023-08-12T03:03:18;99612.39;;;23.71;47.33
74466;BME280;62916;50.044;15.938;2023-08-12T03:05:49;99610.43;;;23.70;47.29
74466;BME280;62916;50.044;15.938;2023-08-12T03:08:20;99608.70;;;23.70;47.39
74466;BME280;62916;50.044;15.938;2023-08-12T03:10:57;99612.89;;;23.69;47.35
74466;BME280;62916;50.044;15.938;2023-08-12T03:13:28;99611.25;;;23.69;47.35
74466;BME280;62916;50.044;15.938;2023-08-12T03:16:00;99613.29;;;23.69;47.45
74466;BME280;62916;50.044;15.938;2023-08-12T03:18:30;99610.36;;;23.69;47.38
74466;BME280;62916;50.044;15.938;2023-08-12T03:21:04;99611.89;;;23.69;47.41
74466;BME280;62916;50.044;15.938;2023-08-12T03:23:35;99616.38;;;23.68;47.35
74466;BME280;62916;50.044;15.938;2023-08-12T03:26:06;99619.91;;;23.68;47.37
74466;BME280;62916;50.044;15.938;2023-08-12T03:28:37;99619.21;;;23.68;47.42
74466;BME280;62916;50.044;15.938;2023-08-12T03:31:08;99617.85;;;23.68;47.44
74466;BME280;62916;50.044;15.938;2023-08-12T03:33:39;99620.55;;;23.69;47.40
74466;BME280;62916;50.044;15.938;2023-08-12T03:36:09;99622.89;;;23.68;47.40
74466;BME280;62916;50.044;15.938;2023-08-12T03:38:41;99622.22;;;23.68;47.33
74466;BME280;62916;50.044;15.938;2023-08-12T03:41:12;99619.41;;;23.67;47.39
74466;BME280;62916;50.044;15.938;2023-08-12T03:43:43;99620.67;;;23.67;47.34
74466;BME280;62916;50.044;15.938;2023-08-12T03:46:15;99618.70;;;23.64;47.37
74466;BME280;62916;50.044;15.938;2023-08-12T03:48:46;99623.92;;;23.65;47.44
74466;BME280;62916;50.044;15.938;2023-08-12T03:51:17;99626.86;;;23.64;47.42
74466;BME280;62916;50.044;15.938;2023-08-12T03:53:48;99629.23;;;23.65;47.42
74466;BME280;62916;50.044;15.938;2023-08-12T03:56:19;99625.69;;;23.64;47.37
74466;BME280;62916;50.044;15.938;2023-08-12T03:58:50;99626.09;;;23.64;47.31
74466;BME280;62916;50.044;15.938;2023-08-12T04:01:21;99627.02;;;23.63;47.36
74466;BME280;62916;50.044;15.938;2023-08-12T04:03:52;99624.33;;;23.62;47.31
74466;BME280;62916;50.044;15.938;2023-08-12T04:06:23;99623.25;;;23.62;47.43
74466;BME280;62916;50.044;15.938;2023-08-12T04:08:54;99622.33;;;23.61;47.42
74466;BME280;62916;50.044;15.938;2023-08-12T04:11:25;99621.36;;;23.61;47.36
74466;BME280;62916;50.044;15.938;2023-08-12T04:13:56;99619.46;;;23.60;47.45
74466;BME280;62916;50.044;15.938;2023-08-12T04:16:27;99618.00;;;23.60;47.45
74466;BME280;62916;50.044;15.938;2023-08-12T04:18:58;99620.63;;;23.59;47.38
74466;BME280;62916;50.044;15.938;2023-08-12T04:21:29;99624.27;;;23.56;47.51
74466;BME280;62916;50.044;15.938;2023-08-12T04:24:00;99620.02;;;23.57;47.40
74466;BME280;62916;50.044;15.938;2023-08-12T04:26:31;99619.52;;;23.56;47.49
74466;BME280;62916;50.044;15.938;2023-08-12T04:29:02;99616.05;;;23.57;47.49
74466;BME280;62916;50.044;15.938;2023-08-12T04:31:33;99613.61;;;23.57;47.42
74466;BME280;62916;50.044;15.938;2023-08-12T04:34:04;99610.67;;;23.56;47.48
74466;BME280;62916;50.044;15.938;2023-08-12T04:36:35;99609.38;;;23.56;47.54
74466;BME280;62916;50.044;15.938;2023-08-12T04:39:07;99614.25;;;23.56;47.65
74466;BME280;62916;50.044;15.938;2023-08-12T04:41:38;99613.32;;;23.57;47.62
74466;BME280;62916;50.044;15.938;2023-08-12T04:44:09;99611.05;;;23.57;47.62
74466;BME280;62916;50.044;15.938;2023-08-12T04:46:40;99614.20;;;23.60;47.55
74466;BME280;62916;50.044;15.938;2023-08-12T04:49:11;99611.54;;;23.60;47.58
74466;BME280;62916;50.044;15.938;2023-08-12T04:51:42;99612.61;;;23.61;47.48
74466;BME280;62916;50.044;15.938;2023-08-12T04:54:13;99611.47;;;23.61;47.53
74466;BME280;62916;50.044;15.938;2023-08-12T04:56:43;99610.38;;;23.61;47.51
74466;BME280;62916;50.044;15.938;2023-08-12T04:59:14;99605.69;;;23.60;47.40
74466;BME280;62916;50.044;15.938;2023-08-12T05:01:45;99612.05;;;23.63;47.59
74466;BME280;62916;50.044;15.938;2023-08-12T05:04:36;99611.40;;;23.64;47.57
74466;BME280;62916;50.044;15.938;2023-08-12T05:07:07;99611.14;;;23.65;47.50
74466;BME280;62916;50.044;15.938;2023-08-12T05:09:38;99606.98;;;23.66;47.51
74466;BME280;62916;50.044;15.938;2023-08-12T05:12:10;99608.95;;;23.67;47.59
74466;BME280;62916;50.044;15.938;2023-08-12T05:14:41;99605.02;;;23.67;47.64
74466;BME280;62916;50.044;15.938;2023-08-12T05:17:13;99599.13;;;23.68;47.70
74466;BME280;62916;50.044;15.938;2023-08-12T05:19:43;99594.67;;;23.69;47.59
74466;BME280;62916;50.044;15.938;2023-08-12T05:22:15;99590.76;;;23.69;47.65
74466;BME280;62916;50.044;15.938;2023-08-12T05:24:46;99589.14;;;23.70;47.62
74466;BME280;62916;50.044;15.938;2023-08-12T05:27:18;99588.61;;;23.71;47.71
74466;BME280;62916;50.044;15.938;2023-08-12T05:29:48;99588.63;;;23.71;47.73
74466;BME280;62916;50.044;15.938;2023-08-12T05:32:19;99590.48;;;23.72;47.70
74466;BME280;62916;50.044;15.938;2023-08-12T05:34:53;99592.38;;;23.73;47.80
74466;BME280;62916;50.044;15.938;2023-08-12T05:37:24;99586.07;;;23.70;47.79
74466;BME280;62916;50.044;15.938;2023-08-12T05:39:54;99592.02;;;23.75;47.82
74466;BME280;62916;50.044;15.938;2023-08-12T05:42:25;99590.80;;;23.76;47.95
74466;BME280;62916;50.044;15.938;2023-08-12T05:44:57;99587.55;;;23.78;47.99
74466;BME280;62916;50.044;15.938;2023-08-12T05:47:28;99587.18;;;23.78;47.99
74466;BME280;62916;50.044;15.938;2023-08-12T05:49:59;99584.15;;;23.79;48.05
74466;BME280;62916;50.044;15.938;2023-08-12T05:52:29;99579.86;;;23.80;48.07
74466;BME280;62916;50.044;15.938;2023-08-12T05:55:01;99579.45;;;23.81;48.08
74466;BME280;62916;50.044;15.938;2023-08-12T05:57:31;99580.95;;;23.82;48.07
74466;BME280;62916;50.044;15.938;2023-08-12T06:00:03;99579.44;;;23.82;48.13
74466;BME280;62916;50.044;15.938;2023-08-12T06:02:34;99576.88;;;23.83;48.07
74466;BME280;62916;50.044;15.938;2023-08-12T06:05:07;99573.98;;;23.83;48.13
74466;BME280;62916;50.044;15.938;2023-08-12T06:07:38;99575.11;;;23.85;48.24
74466;BME280;62916;50.044;15.938;2023-08-12T06:10:10;99573.59;;;23.87;48.24
74466;BME280;62916;50.044;15.938;2023-08-12T06:12:41;99574.36;;;23.88;48.11
74466;BME280;62916;50.044;15.938;2023-08-12T06:15:12;99577.27;;;23.90;48.20
74466;BME280;62916;50.044;15.938;2023-08-12T06:17:46;99575.00;;;23.89;48.24
74466;BME280;62916;50.044;15.938;2023-08-12T06:20:17;99577.77;;;23.90;48.21
74466;BME280;62916;50.044;15.938;2023-08-12T06:22:48;99576.54;;;23.91;48.17
74466;BME280;62916;50.044;15.938;2023-08-12T06:25:20;99577.93;;;23.91;48.14
74466;BME280;62916;50.044;15.938;2023-08-12T06:27:51;99578.16;;;23.91;48.16
74466;BME280;62916;50.044;15.938;2023-08-12T06:30:22;99576.52;;;23.91;48.15
74466;BME280;62916;50.044;15.938;2023-08-12T06:32:53;99578.38;;;23.93;48.28
74466;BME280;62916;50.044;15.938;2023-08-12T06:35:24;99580.80;;;23.92;48.12
74466;BME280;62916;50.044;15.938;2023-08-12T06:37:55;99575.38;;;23.93;48.33
74466;BME280;62916;50.044;15.938;2023-08-12T06:40:26;99572.41;;;23.93;48.22
74466;BME280;62916;50.044;15.938;2023-08-12T06:42:57;99570.35;;;23.94;48.29
74466;BME280;62916;50.044;15.938;2023-08-12T06:45:28;99567.66;;;23.95;48.27
74466;BME280;62916;50.044;15.938;2023-08-12T06:47:59;99564.83;;;23.95;48.26
74466;BME280;62916;50.044;15.938;2023-08-12T06:50:31;99564.69;;;23.96;48.34
74466;BME280;62916;50.044;15.938;2023-08-12T06:53:03;99563.30;;;23.97;48.30
74466;BME280;62916;50.044;15.938;2023-08-12T06:55:34;99561.52;;;23.97;48.24
74466;BME280;62916;50.044;15.938;2023-08-12T06:58:05;99558.06;;;23.97;48.30
74466;BME280;62916;50.044;15.938;2023-08-12T07:00:35;99559.33;;;23.99;48.34
74466;BME280;62916;50.044;15.938;2023-08-12T07:03:06;99558.84;;;24.00;48.43
74466;BME280;62916;50.044;15.938;2023-08-12T07:05:37;99556.56;;;24.02;48.51
74466;BME280;62916;50.044;15.938;2023-08-12T07:08:08;99551.45;;;24.02;48.47
74466;BME280;62916;50.044;15.938;2023-08-12T07:10:40;99554.39;;;24.02;48.42
74466;BME280;62916;50.044;15.938;2023-08-12T07:13:13;99550.65;;;24.00;48.45
74466;BME280;62916;50.044;15.938;2023-08-12T07:15:43;99553.67;;;24.03;48.36
74466;BME280;62916;50.044;15.938;2023-08-12T07:18:14;99550.89;;;24.05;48.39
74466;BME280;62916;50.044;15.938;2023-08-12T07:20:46;99550.39;;;24.05;48.23
74466;BME280;62916;50.044;15.938;2023-08-12T07:23:16;99550.52;;;24.04;48.25
74466;BME280;62916;50.044;15.938;2023-08-12T07:25:48;99545.83;;;24.04;48.26
74466;BME280;62916;50.044;15.938;2023-08-12T07:28:19;99545.98;;;24.06;48.18
74466;BME280;62916;50.044;15.938;2023-08-12T07:30:50;99544.99;;;24.07;48.27
74466;BME280;62916;50.044;15.938;2023-08-12T07:33:22;99541.70;;;24.07;48.20
74466;BME280;62916;50.044;15.938;2023-08-12T07:35:54;99539.20;;;24.08;48.17
74466;BME280;62916;50.044;15.938;2023-08-12T07:38:25;99533.20;;;24.07;48.21
74466;BME280;62916;50.044;15.938;2023-08-12T07:40:56;99528.93;;;24.06;48.11
74466;BME280;62916;50.044;15.938;2023-08-12T07:43:27;99533.23;;;24.08;48.08
74466;BME280;62916;50.044;15.938;2023-08-12T07:45:58;99532.09;;;24.08;48.19
74466;BME280;62916;50.044;15.938;2023-08-12T07:48:38;99532.39;;;24.08;48.11
74466;BME280;62916;50.044;15.938;2023-08-12T07:51:09;99530.30;;;24.08;48.15
74466;BME280;62916;50.044;15.938;2023-08-12T07:53:41;99525.23;;;24.07;48.16
74466;BME280;62916;50.044;15.938;2023-08-12T07:56:12;99526.95;;;24.08;48.22
74466;BME280;62916;50.044;15.938;2023-08-12T07:58:43;99525.27;;;24.06;48.23
74466;BME280;62916;50.044;15.938;2023-08-12T08:01:15;99524.70;;;24.07;48.21
74466;BME280;62916;50.044;15.938;2023-08-12T08:03:46;99519.27;;;24.07;48.17
74466;BME280;62916;50.044;15.938;2023-08-12T08:06:17;99516.89;;;24.07;48.22
74466;BME280;62916;50.044;15.938;2023-08-12T08:08:48;99516.26;;;24.07;48.25
74466;BME280;62916;50.044;15.938;2023-08-12T08:11:19;99517.29;;;24.07;48.23
74466;BME280;62916;50.044;15.938;2023-08-12T08:13:49;99512.75;;;24.07;48.27
74466;BME280;62916;50.044;15.938;2023-08-12T08:16:21;99511.86;;;24.06;48.31
74466;BME280;62916;50.044;15.938;2023-08-12T08:18:52;99508.45;;;24.07;48.38
74466;BME280;62916;50.044;15.938;2023-08-12T08:21:23;99506.63;;;24.07;48.35
74466;BME280;62916;50.044;15.938;2023-08-12T08:23:54;99511.83;;;24.08;48.44
74466;BME280;62916;50.044;15.938;2023-08-12T08:26:24;99509.16;;;24.07;48.52
74466;BME280;62916;50.044;15.938;2023-08-12T08:28:56;99511.20;;;24.08;48.51
74466;BME280;62916;50.044;15.938;2023-08-12T08:31:27;99509.66;;;24.08;48.58
74466;BME280;62916;50.044;15.938;2023-08-12T08:33:59;99509.36;;;24.09;48.55
74466;BME280;62916;50.044;15.938;2023-08-12T08:36:29;99505.06;;;24.08;48.54
74466;BME280;62916;50.044;15.938;2023-08-12T08:39:00;99507.83;;;24.08;48.56
74466;BME280;62916;50.044;15.938;2023-08-12T08:41:33;99508.79;;;24.08;48.63
74466;BME280;62916;50.044;15.938;2023-08-12T08:44:09;99507.86;;;24.09;48.70
74466;BME280;62916;50.044;15.938;2023-08-12T08:46:42;99506.39;;;24.09;48.70
74466;BME280;62916;50.044;15.938;2023-08-12T08:49:16;99503.73;;;24.09;48.66
74466;BME280;62916;50.044;15.938;2023-08-12T08:51:49;99501.39;;;24.09;48.75
74466;BME280;62916;50.044;15.938;2023-08-12T08:54:21;99502.77;;;24.09;48.79
74466;BME280;62916;50.044;15.938;2023-08-12T08:56:52;99501.60;;;24.10;48.80
74466;BME280;62916;50.044;15.938;2023-08-12T08:59:35;99498.14;;;24.13;49.00
74466;BME280;62916;50.044;15.938;2023-08-12T09:02:12;99500.20;;;24.17;48.76
74466;BME280;62916;50.044;15.938;2023-08-12T09:04:47;99500.41;;;24.20;48.78
74466;BME280;62916;50.044;15.938;2023-08-12T09:07:19;99496.95;;;24.22;48.74
74466;BME280;62916;50.044;15.938;2023-08-12T09:09:53;99494.95;;;24.23;48.75
74466;BME280;62916;50.044;15.938;2023-08-12T09:12:26;99488.95;;;24.24;48.96
74466;BME280;62916;50.044;15.938;2023-08-12T09:14:56;99489.27;;;24.26;48.94
74466;BME280;62916;50.044;15.938;2023-08-12T09:17:28;99486.84;;;24.28;49.03
74466;BME280;62916;50.044;15.938;2023-08-12T09:19:59;99481.09;;;24.29;48.91
74466;BME280;62916;50.044;15.938;2023-08-12T09:22:30;99477.15;;;24.30;48.97
74466;BME280;62916;50.044;15.938;2023-08-12T09:25:01;99475.55;;;24.32;49.05
74466;BME280;62916;50.044;15.938;2023-08-12T09:27:34;99472.75;;;24.33;48.98
74466;BME280;62916;50.044;15.938;2023-08-12T09:30:07;99467.94;;;24.34;49.02
74466;BME280;62916;50.044;15.938;2023-08-12T09:32:38;99468.73;;;24.35;49.09
74466;BME280;62916;50.044;15.938;2023-08-12T09:35:16;99469.24;;;24.36;48.96
74466;BME280;62916;50.044;15.938;2023-08-12T09:37:48;99467.52;;;24.37;48.95
74466;BME280;62916;50.044;15.938;2023-08-12T09:40:19;99468.02;;;24.38;49.00
74466;BME280;62916;50.044;15.938;2023-08-12T09:42:53;99464.38;;;24.38;48.98
74466;BME280;62916;50.044;15.938;2023-08-12T09:45:26;99465.95;;;24.38;48.82
74466;BME280;62916;50.044;15.938;2023-08-12T09:47:57;99467.65;;;24.38;48.89
74466;BME280;62916;50.044;15.938;2023-08-12T09:50:29;99468.02;;;24.39;48.81
74466;BME280;62916;50.044;15.938;2023-08-12T09:53:01;99462.08;;;24.39;48.82
74466;BME280;62916;50.044;15.938;2023-08-12T09:55:33;99460.18;;;24.40;48.79
74466;BME280;62916;50.044;15.938;2023-08-12T09:58:07;99455.70;;;24.39;48.83
74466;BME280;62916;50.044;15.938;2023-08-12T10:00:41;99459.24;;;24.41;48.83
74466;BME280;62916;50.044;15.938;2023-08-12T10:03:13;99458.04;;;24.41;48.77
74466;BME280;62916;50.044;15.938;2023-08-12T10:05:44;99456.05;;;24.41;48.73
74466;BME280;62916;50.044;15.938;2023-08-12T10:08:17;99453.05;;;24.42;48.67
74466;BME280;62916;50.044;15.938;2023-08-12T10:10:48;99450.88;;;24.44;48.73
74466;BME280;62916;50.044;15.938;2023-08-12T10:13:36;99440.42;;;24.46;48.88
74466;BME280;62916;50.044;15.938;2023-08-12T10:16:07;99439.83;;;24.49;49.02
74466;BME280;62916;50.044;15.938;2023-08-12T10:18:40;99435.99;;;24.51;48.93
74466;BME280;62916;50.044;15.938;2023-08-12T10:21:11;99431.16;;;24.54;48.87
74466;BME280;62916;50.044;15.938;2023-08-12T10:23:43;99428.41;;;24.56;48.89
74466;BME280;62916;50.044;15.938;2023-08-12T10:26:16;99425.21;;;24.59;48.80
74466;BME280;62916;50.044;15.938;2023-08-12T10:28:50;99422.44;;;24.62;48.94
74466;BME280;62916;50.044;15.938;2023-08-12T10:31:22;99423.44;;;24.66;48.99
74466;BME280;62916;50.044;15.938;2023-08-12T10:33:53;99424.99;;;24.68;48.85
74466;BME280;62916;50.044;15.938;2023-08-12T10:36:25;99423.86;;;24.69;49.05
74466;BME280;62916;50.044;15.938;2023-08-12T10:38:57;99422.86;;;24.72;48.98
74466;BME280;62916;50.044;15.938;2023-08-12T10:41:28;99417.67;;;24.75;49.07
74466;BME280;62916;50.044;15.938;2023-08-12T10:44:04;99420.27;;;24.79;49.02
74466;BME280;62916;50.044;15.938;2023-08-12T10:46:36;99410.92;;;24.80;48.92
74466;BME280;62916;50.044;15.938;2023-08-12T10:49:09;99409.39;;;24.82;48.90
74466;BME280;62916;50.044;15.938;2023-08-12T10:51:46;99405.45;;;24.85;48.99
74466;BME280;62916;50.044;15.938;2023-08-12T10:54:20;99401.86;;;24.88;49.01
74466;BME280;62916;50.044;15.938;2023-08-12T10:57:10;99405.99;;;24.90;48.77
74466;BME280;62916;50.044;15.938;2023-08-12T10:59:56;99401.55;;;24.90;48.66
74466;BME280;62916;50.044;15.938;2023-08-12T11:02:32;99399.08;;;24.92;48.73
74466;BME280;62916;50.044;15.938;2023-08-12T11:05:07;99402.70;;;24.93;48.82
74466;BME280;62916;50.044;15.938;2023-08-12T11:07:41;99403.64;;;24.95;48.59
74466;BME280;62916;50.044;15.938;2023-08-12T11:10:14;99398.96;;;24.96;48.47
74466;BME280;62916;50.044;15.938;2023-08-12T11:12:54;99401.80;;;24.98;48.83
74466;BME280;62916;50.044;15.938;2023-08-12T11:15:35;99395.77;;;24.97;48.53
74466;BME280;62916;50.044;15.938;2023-08-12T11:18:09;99396.04;;;25.00;48.33
74466;BME280;62916;50.044;15.938;2023-08-12T11:20:41;99393.91;;;25.01;48.52
74466;BME280;62916;50.044;15.938;2023-08-12T11:23:12;99391.37;;;25.02;48.55
74466;BME280;62916;50.044;15.938;2023-08-12T11:25:44;99387.02;;;25.03;48.43
74466;BME280;62916;50.044;15.938;2023-08-12T11:28:17;99388.27;;;25.04;48.19
74466;BME280;62916;50.044;15.938;2023-08-12T11:30:49;99381.17;;;25.05;48.20
74466;BME280;62916;50.044;15.938;2023-08-12T11:33:20;99379.20;;;25.07;48.07
74466;BME280;62916;50.044;15.938;2023-08-12T11:35:51;99377.13;;;25.08;48.01
74466;BME280;62916;50.044;15.938;2023-08-12T11:38:22;99372.95;;;25.08;47.91
74466;BME280;62916;50.044;15.938;2023-08-12T11:40:53;99372.98;;;25.09;48.02
74466;BME280;62916;50.044;15.938;2023-08-12T11:43:24;99373.91;;;25.10;47.87
74466;BME280;62916;50.044;15.938;2023-08-12T11:45:58;99369.50;;;25.11;47.81
74466;BME280;62916;50.044;15.938;2023-08-12T11:48:30;99363.85;;;25.12;47.79
74466;BME280;62916;50.044;15.938;2023-08-12T11:51:01;99366.55;;;25.12;47.66
74466;BME280;62916;50.044;15.938;2023-08-12T11:53:32;99359.95;;;25.10;47.61
74466;BME280;62916;50.044;15.938;2023-08-12T11:56:04;99360.20;;;25.14;47.54
74466;BME280;62916;50.044;15.938;2023-08-12T11:58:38;99363.22;;;25.14;47.43
74466;BME280;62916;50.044;15.938;2023-08-12T12:01:22;99355.31;;;25.16;47.34
74466;BME280;62916;50.044;15.938;2023-08-12T12:03:53;99352.14;;;25.17;47.31
74466;BME280;62916;50.044;15.938;2023-08-12T12:06:32;99345.44;;;25.22;47.43
74466;BME280;62916;50.044;15.938;2023-08-12T12:09:06;99339.03;;;25.28;47.21
74466;BME280;62916;50.044;15.938;2023-08-12T12:11:40;99338.23;;;25.33;46.93
74466;BME280;62916;50.044;15.938;2023-08-12T12:14:11;99342.11;;;25.37;46.81
74466;BME280;62916;50.044;15.938;2023-08-12T12:16:44;99336.92;;;25.41;46.64
74466;BME280;62916;50.044;15.938;2023-08-12T12:19:18;99335.02;;;25.44;46.56
74466;BME280;62916;50.044;15.938;2023-08-12T12:21:50;99333.08;;;25.47;46.26
74466;BME280;62916;50.044;15.938;2023-08-12T12:24:22;99332.10;;;25.49;46.35
74466;BME280;62916;50.044;15.938;2023-08-12T12:26:59;99330.86;;;25.50;46.24
74466;BME280;62916;50.044;15.938;2023-08-12T12:29:30;99334.73;;;25.54;46.13
74466;BME280;62916;50.044;15.938;2023-08-12T12:32:01;99333.75;;;25.56;45.79
74466;BME280;62916;50.044;15.938;2023-08-12T12:34:33;99328.89;;;25.58;46.25
74466;BME280;62916;50.044;15.938;2023-08-12T12:37:04;99321.45;;;25.60;45.75
74466;BME280;62916;50.044;15.938;2023-08-12T12:39:35;99321.73;;;25.63;45.67
74466;BME280;62916;50.044;15.938;2023-08-12T12:42:06;99319.02;;;25.65;45.95
74466;BME280;62916;50.044;15.938;2023-08-12T12:44:37;99314.82;;;25.66;45.95
74466;BME280;62916;50.044;15.938;2023-08-12T12:47:08;99311.84;;;25.69;45.67
74466;BME280;62916;50.044;15.938;2023-08-12T12:49:40;99304.77;;;25.71;45.93
74466;BME280;62916;50.044;15.938;2023-08-12T12:52:12;99298.13;;;25.67;46.05
74466;BME280;62916;50.044;15.938;2023-08-12T12:54:44;99303.80;;;25.71;45.67
74466;BME280;62916;50.044;15.938;2023-08-12T12:57:14;99300.70;;;25.73;45.89
74466;BME280;62916;50.044;15.938;2023-08-12T12:59:45;99298.59;;;25.75;45.78
74466;BME280;62916;50.044;15.938;2023-08-12T13:02:16;99296.26;;;25.76;45.73
74466;BME280;62916;50.044;15.938;2023-08-12T13:04:48;99290.12;;;25.77;45.64
74466;BME280;62916;50.044;15.938;2023-08-12T13:07:19;99287.08;;;25.78;45.88
74466;BME280;62916;50.044;15.938;2023-08-12T13:09:50;99284.36;;;25.79;45.37
74466;BME280;62916;50.044;15.938;2023-08-12T13:12:21;99285.13;;;25.79;45.46
74466;BME280;62916;50.044;15.938;2023-08-12T13:14:52;99287.02;;;25.80;45.30